createdAt,value
2023-02-22T00:01:23.098Z,11.49
2023-02-22T00:03:52.443Z,11.19
2023-02-22T00:06:25.144Z,11.10
2023-02-22T00:08:53.315Z,11.26
2023-02-22T00:11:21.449Z,11.72
2023-02-22T00:13:50.635Z,11.79
2023-02-22T00:16:20.310Z,11.70
2023-02-22T00:18:47.931Z,11.78
2023-02-22T00:21:17.273Z,11.84
2023-02-22T00:23:48.050Z,11.62
2023-02-22T00:26:19.073Z,11.37
2023-02-22T00:28:48.323Z,11.22
2023-02-22T00:31:16.342Z,11.14
2023-02-22T00:33:44.346Z,10.94
2023-02-22T00:36:13.374Z,11.36
2023-02-22T00:38:41.970Z,11.44
2023-02-22T00:41:13.273Z,11.82
2023-02-22T00:43:41.464Z,11.94
2023-02-22T00:46:09.146Z,11.68
2023-02-22T00:48:36.585Z,11.60
2023-02-22T00:51:04.104Z,11.25
2023-02-22T00:53:31.532Z,11.26
2023-02-22T00:55:59.173Z,11.00
2023-02-22T00:58:27.889Z,11.01
2023-02-22T01:00:55.474Z,10.35
2023-02-22T01:03:22.939Z,10.89
2023-02-22T01:05:50.482Z,11.24
2023-02-22T01:08:18.431Z,11.47
2023-02-22T01:10:46.623Z,11.52
2023-02-22T01:13:14.481Z,11.43
2023-02-22T01:15:45.240Z,11.42
2023-02-22T01:18:13.554Z,11.37
2023-02-22T01:20:41.026Z,11.38
2023-02-22T01:23:10.512Z,11.31
2023-02-22T01:25:38.286Z,11.36
2023-02-22T01:28:07.816Z,11.29
2023-02-22T01:30:37.405Z,11.23
2023-02-22T01:33:08.757Z,11.15
2023-02-22T01:35:38.514Z,11.04
2023-02-22T01:38:05.956Z,11.32
2023-02-22T01:40:34.744Z,11.26
2023-02-22T01:43:05.776Z,11.23
2023-02-22T01:45:57.773Z,11.20
2023-02-22T01:48:31.929Z,10.91
2023-02-22T01:51:02.152Z,11.00
2023-02-22T01:53:34.482Z,10.94
2023-02-22T01:56:03.189Z,10.89
2023-02-22T01:58:32.968Z,10.82
2023-02-22T02:01:01.147Z,11.00
2023-02-22T02:03:34.301Z,10.93
2023-02-22T02:06:04.728Z,11.00
2023-02-22T02:08:37.726Z,10.79
2023-02-22T02:11:09.252Z,10.81
2023-02-22T02:13:37.645Z,10.62
2023-02-22T02:16:05.536Z,10.96
2023-02-22T02:18:34.383Z,10.88
2023-02-22T02:21:25.751Z,10.82
2023-02-22T02:24:15.519Z,11.02
2023-02-22T02:27:06.459Z,10.74
2023-02-22T02:29:54.011Z,10.82
2023-02-22T02:32:35.956Z,10.74
2023-02-22T02:35:11.420Z,11.03
2023-02-22T02:37:48.748Z,10.73
2023-02-22T02:40:22.409Z,10.65
2023-02-22T02:42:57.306Z,10.76
2023-02-22T02:45:30.285Z,10.81
2023-02-22T02:48:02.073Z,10.66
2023-02-22T02:50:34.772Z,10.87
2023-02-22T02:53:05.569Z,10.79
2023-02-22T02:55:36.633Z,10.66
2023-02-22T02:58:05.824Z,10.45
2023-02-22T03:00:39.388Z,10.54
2023-02-22T03:03:21.586Z,10.54
2023-02-22T03:06:08.064Z,10.38
2023-02-22T03:08:43.245Z,10.41
2023-02-22T03:11:16.228Z,10.44
2023-02-22T03:13:55.554Z,10.40
2023-02-22T03:16:33.593Z,10.66
2023-02-22T03:19:09.966Z,10.69
2023-02-22T03:21:46.581Z,10.76
2023-02-22T03:24:21.048Z,10.67
2023-02-22T03:26:53.523Z,10.70
2023-02-22T03:29:25.323Z,10.52
2023-02-22T03:32:01.354Z,10.71
2023-02-22T03:34:35.338Z,10.89
2023-02-22T03:37:09.349Z,10.86
2023-02-22T03:39:39.248Z,10.76
2023-02-22T03:42:12.054Z,10.75
2023-02-22T03:44:41.950Z,10.52
2023-02-22T03:47:14.657Z,10.67
2023-02-22T03:49:49.053Z,10.76
2023-02-22T03:52:17.339Z,10.75
2023-02-22T03:54:45.020Z,11.10
2023-02-22T03:57:17.465Z,10.95
2023-02-22T03:59:45.985Z,10.96
2023-02-22T04:02:13.487Z,11.13
2023-02-22T04:04:40.973Z,10.96
2023-02-22T04:07:09.848Z,11.03
2023-02-22T04:09:37.279Z,10.92
2023-02-22T04:12:05.441Z,10.94
2023-02-22T04:14:32.902Z,10.81
2023-02-22T04:17:01.141Z,10.78
2023-02-22T04:19:28.554Z,10.68
2023-02-22T04:21:56.005Z,10.63
2023-02-22T04:24:24.954Z,10.51
2023-02-22T04:26:53.004Z,10.46
2023-02-22T04:29:20.429Z,10.67
2023-02-22T04:31:48.118Z,10.74
2023-02-22T04:34:15.562Z,10.25
2023-02-22T04:36:44.634Z,10.80
2023-02-22T04:39:12.212Z,10.68
2023-02-22T04:41:40.983Z,10.43
2023-02-22T04:44:08.679Z,10.49
2023-02-22T04:46:36.128Z,10.71
2023-02-22T04:49:03.559Z,10.44
2023-02-22T04:51:31.293Z,10.34
2023-02-22T04:53:58.709Z,10.64
2023-02-22T04:56:26.182Z,10.69
2023-02-22T04:58:54.916Z,10.62
2023-02-22T05:01:23.516Z,10.54
2023-02-22T05:03:50.924Z,10.37
2023-02-22T05:06:18.780Z,10.19
2023-02-22T05:08:46.199Z,10.47
2023-02-22T05:11:13.585Z,10.72
2023-02-22T05:13:42.213Z,10.65
2023-02-22T05:16:11.248Z,10.57
2023-02-22T05:18:38.696Z,10.67
2023-02-22T05:21:06.913Z,10.59
2023-02-22T05:23:34.790Z,10.57
2023-02-22T05:26:02.320Z,10.53
2023-02-22T05:28:29.773Z,10.68
2023-02-22T05:30:57.533Z,10.67
2023-02-22T05:33:26.295Z,10.75
2023-02-22T05:35:56.076Z,10.68
2023-02-22T05:38:23.548Z,10.69
2023-02-22T05:40:51.339Z,10.77
2023-02-22T05:43:18.929Z,10.47
2023-02-22T05:45:46.568Z,10.48
2023-02-22T05:48:14.019Z,10.72
2023-02-22T05:50:43.929Z,10.69
2023-02-22T05:53:11.505Z,10.91
2023-02-22T05:55:38.967Z,10.98
2023-02-22T05:58:06.686Z,10.94
2023-02-22T06:00:34.161Z,10.61
2023-02-22T06:03:03.694Z,10.24
2023-02-22T06:05:31.631Z,10.33
2023-02-22T06:08:00.966Z,10.84
2023-02-22T06:10:29.082Z,10.79
2023-02-22T06:12:58.013Z,10.73
2023-02-22T06:15:26.949Z,11.00
2023-02-22T06:17:55.830Z,11.01
2023-02-22T06:20:25.365Z,11.10
2023-02-22T06:22:55.135Z,11.01
2023-02-22T06:25:27.025Z,11.06
2023-02-22T06:27:54.508Z,10.97
2023-02-22T06:30:23.945Z,10.98
2023-02-22T06:32:51.535Z,11.09
2023-02-22T06:35:19.487Z,10.40
2023-02-22T06:37:47.352Z,10.94
2023-02-22T06:40:15.701Z,10.74
2023-02-22T06:42:44.680Z,10.88
2023-02-22T06:45:12.303Z,10.97
2023-02-22T06:47:41.115Z,11.12
2023-02-22T06:50:18.470Z,10.90
2023-02-22T06:52:47.846Z,11.25
2023-02-22T06:55:18.713Z,11.16
2023-02-22T06:57:47.491Z,11.12
2023-02-22T07:00:17.693Z,11.20
2023-02-22T07:02:45.308Z,11.33
2023-02-22T07:05:13.819Z,11.33
2023-02-22T07:07:41.701Z,11.41
2023-02-22T07:10:16.758Z,11.60
2023-02-22T07:12:44.214Z,11.27
2023-02-22T07:15:13.660Z,11.55
2023-02-22T07:17:41.503Z,11.01
2023-02-22T07:20:11.477Z,9.80
2023-02-22T07:22:39.003Z,10.49
2023-02-22T07:25:09.899Z,11.01
2023-02-22T07:27:38.371Z,11.43
2023-02-22T07:30:07.330Z,10.85
2023-02-22T07:32:36.361Z,11.29
2023-02-22T07:35:03.826Z,10.89
2023-02-22T07:37:31.284Z,11.24
2023-02-22T07:39:58.690Z,11.48
2023-02-22T07:42:26.159Z,11.70
2023-02-22T07:44:53.564Z,11.68
2023-02-22T07:47:20.981Z,10.99
2023-02-22T07:49:50.260Z,10.48
2023-02-22T07:52:18.018Z,10.05
2023-02-22T07:54:47.010Z,9.67
2023-02-22T07:57:14.422Z,10.01
2023-02-22T07:59:41.859Z,10.04
2023-02-22T08:02:16.211Z,10.87
2023-02-22T08:04:43.652Z,10.85
2023-02-22T08:07:12.416Z,11.17
2023-02-22T08:09:39.914Z,11.27
2023-02-22T08:12:07.947Z,11.68
2023-02-22T08:14:35.350Z,11.50
2023-02-22T08:17:02.841Z,11.56
2023-02-22T08:19:30.281Z,11.96
2023-02-22T08:21:57.727Z,11.83
2023-02-22T08:24:26.508Z,12.22
2023-02-22T08:26:53.999Z,11.87
2023-02-22T08:29:23.745Z,11.90
2023-02-22T08:31:54.001Z,11.94
2023-02-22T08:34:21.598Z,11.39
2023-02-22T08:36:49.627Z,11.70
2023-02-22T08:39:18.075Z,11.25
2023-02-22T08:41:47.238Z,12.63
2023-02-22T08:44:14.861Z,12.56
2023-02-22T08:46:42.252Z,12.63
2023-02-22T08:49:09.754Z,12.33
2023-02-22T08:51:37.702Z,11.45
2023-02-22T08:54:06.814Z,10.87
2023-02-22T08:56:34.341Z,10.64
2023-02-22T08:59:03.073Z,11.05
2023-02-22T09:01:33.348Z,10.67
2023-02-22T09:04:01.343Z,11.78
2023-02-22T09:06:29.154Z,12.25
2023-02-22T09:08:56.965Z,12.29
2023-02-22T09:11:24.637Z,12.29
2023-02-22T09:13:52.067Z,12.67
2023-02-22T09:16:20.809Z,12.63
2023-02-22T09:18:48.360Z,11.86
2023-02-22T09:21:16.475Z,11.81
2023-02-22T09:23:44.106Z,12.47
2023-02-22T09:26:11.584Z,11.93
2023-02-22T09:28:38.980Z,12.44
2023-02-22T09:31:06.498Z,12.60
2023-02-22T09:33:38.038Z,12.51
2023-02-22T09:36:06.893Z,11.65
2023-02-22T09:38:34.480Z,12.66
2023-02-22T09:41:12.220Z,11.92
2023-02-22T09:43:45.362Z,12.38
2023-02-22T09:46:27.522Z,12.94
2023-02-22T09:49:05.188Z,12.41
2023-02-22T09:51:39.355Z,12.13
2023-02-22T09:54:14.850Z,12.57
2023-02-22T09:56:43.703Z,12.53
2023-02-22T09:59:18.734Z,12.65
2023-02-22T10:01:49.682Z,12.88
2023-02-22T10:04:23.099Z,12.92
2023-02-22T10:07:05.949Z,12.58
2023-02-22T10:09:37.580Z,11.95
2023-02-22T10:12:11.929Z,12.37
2023-02-22T10:14:49.696Z,12.78
2023-02-22T10:17:27.321Z,12.31
2023-02-22T10:20:06.095Z,13.23
2023-02-22T10:22:45.623Z,12.14
2023-02-22T10:25:17.948Z,12.69
2023-02-22T10:27:53.045Z,12.29
2023-02-22T10:30:25.324Z,13.05
2023-02-22T10:33:00.521Z,12.16
2023-02-22T10:35:31.003Z,12.08
2023-02-22T10:38:02.727Z,12.73
2023-02-22T10:40:33.203Z,12.84
2023-02-22T10:43:05.997Z,13.60
2023-02-22T10:45:36.977Z,13.78
2023-02-22T10:48:11.503Z,13.95
2023-02-22T10:50:43.190Z,14.11
2023-02-22T10:53:11.774Z,14.26
2023-02-22T10:56:10.348Z,13.90
2023-02-22T10:58:43.161Z,11.95
2023-02-22T11:01:27.369Z,13.24
2023-02-22T11:04:00.141Z,12.55
2023-02-22T11:06:29.732Z,13.13
2023-02-22T11:09:10.856Z,13.32
2023-02-22T11:11:39.747Z,13.15
2023-02-22T11:14:10.657Z,13.73
2023-02-22T11:16:41.607Z,13.98
2023-02-22T11:19:20.826Z,14.02
2023-02-22T11:21:52.928Z,14.12
2023-02-22T11:24:24.205Z,14.05
2023-02-22T11:26:54.973Z,12.88
2023-02-22T11:29:27.282Z,13.37
2023-02-22T11:31:56.178Z,12.46
2023-02-22T11:34:31.531Z,12.18
2023-02-22T11:37:16.635Z,12.46
2023-02-22T11:39:44.737Z,13.23
2023-02-22T11:42:23.201Z,13.56
2023-02-22T11:45:08.308Z,13.95
2023-02-22T11:47:36.008Z,14.08
2023-02-22T11:50:11.281Z,13.38
2023-02-22T11:52:47.067Z,13.77
2023-02-22T11:55:36.311Z,13.61
2023-02-22T11:58:27.683Z,13.59
2023-02-22T12:01:07.008Z,12.88
2023-02-22T12:03:50.082Z,12.63
2023-02-22T12:06:27.469Z,13.06
2023-02-22T12:09:06.901Z,13.29
2023-02-22T12:11:44.500Z,13.66
2023-02-22T12:14:22.228Z,13.82
2023-02-22T12:17:08.414Z,13.41
2023-02-22T12:19:40.334Z,12.48
2023-02-22T12:22:11.504Z,12.85
2023-02-22T12:24:46.182Z,13.31
2023-02-22T12:27:20.724Z,13.71
2023-02-22T12:29:52.198Z,14.16
2023-02-22T12:32:29.846Z,14.32
2023-02-22T12:35:05.542Z,14.26
2023-02-22T12:37:39.148Z,13.54
2023-02-22T12:40:15.721Z,13.63
2023-02-22T12:42:53.877Z,14.22
2023-02-22T12:45:31.779Z,13.88
2023-02-22T12:48:13.811Z,13.92
2023-02-22T12:50:44.264Z,13.57
2023-02-22T12:53:19.924Z,13.42
2023-02-22T12:55:52.308Z,13.64
2023-02-22T12:58:25.873Z,13.31
2023-02-22T13:01:01.188Z,12.92
2023-02-22T13:03:34.147Z,13.52
2023-02-22T13:06:14.514Z,13.62
2023-02-22T13:08:51.591Z,13.46
2023-02-22T13:11:27.911Z,12.94
2023-02-22T13:14:14.960Z,13.05
2023-02-22T13:16:52.526Z,12.76
2023-02-22T13:19:35.341Z,13.37
2023-02-22T13:22:10.047Z,13.14
2023-02-22T13:24:47.066Z,12.95
2023-02-22T13:27:22.803Z,13.53
2023-02-22T13:29:55.706Z,12.98
2023-02-22T13:32:37.965Z,12.37
2023-02-22T13:35:35.261Z,13.30
2023-02-22T13:38:21.279Z,13.40
2023-02-22T13:41:13.555Z,14.19
2023-02-22T13:44:13.535Z,13.38
2023-02-22T13:47:21.834Z,14.11
2023-02-22T13:50:16.797Z,13.67
2023-02-22T13:52:46.295Z,13.49
2023-02-22T13:55:19.060Z,12.89
2023-02-22T13:57:49.909Z,13.46
2023-02-22T14:00:41.743Z,13.61
2023-02-22T14:03:36.062Z,12.89
2023-02-22T14:06:06.325Z,13.66
2023-02-22T14:08:44.094Z,12.65
2023-02-22T14:11:56.849Z,12.71
2023-02-22T14:14:24.813Z,13.21
2023-02-22T14:17:30.536Z,13.59
2023-02-22T14:20:20.721Z,13.59
2023-02-22T14:22:50.213Z,12.61
2023-02-22T14:28:10.773Z,13.51
2023-02-22T14:30:40.152Z,12.81
2023-02-22T14:33:44.303Z,12.63
2023-02-22T14:36:13.725Z,12.60
2023-02-22T14:38:45.325Z,12.96
2023-02-22T14:41:14.929Z,13.00
2023-02-22T14:43:43.139Z,13.28
2023-02-22T14:46:17.200Z,13.17
2023-02-22T14:48:47.637Z,12.76
2023-02-22T14:51:24.181Z,12.58
2023-02-22T14:53:59.478Z,12.38
2023-02-22T14:56:36.177Z,12.07
2023-02-22T14:59:16.082Z,11.99
2023-02-22T15:01:58.417Z,11.99
2023-02-22T15:04:31.968Z,11.59
2023-02-22T15:07:09.087Z,11.35
2023-02-22T15:09:37.482Z,11.94
2023-02-22T15:12:14.400Z,12.05
2023-02-22T15:14:44.618Z,13.01
2023-02-22T15:17:19.512Z,12.70
2023-02-22T15:19:49.508Z,12.76
2023-02-22T15:22:23.529Z,11.96
2023-02-22T15:24:59.683Z,12.52
2023-02-22T15:27:28.199Z,12.83
2023-02-22T15:30:00.158Z,12.86
2023-02-22T15:32:36.092Z,12.75
2023-02-22T15:35:14.074Z,12.18
2023-02-22T15:37:44.343Z,12.22
2023-02-22T15:40:15.950Z,11.89
2023-02-22T15:42:45.363Z,12.32
2023-02-22T15:45:19.846Z,12.33
2023-02-22T15:47:49.367Z,11.87
2023-02-22T15:50:24.048Z,12.17
2023-02-22T15:52:58.379Z,12.37
2023-02-22T15:55:29.635Z,11.85
2023-02-22T15:58:01.583Z,11.47
2023-02-22T16:00:36.199Z,11.50
2023-02-22T16:03:05.622Z,12.32
2023-02-22T16:05:39.710Z,11.72
2023-02-22T16:08:17.920Z,11.08
2023-02-22T16:10:54.296Z,11.04
2023-02-22T16:13:31.410Z,11.86
2023-02-22T16:16:02.694Z,11.02
2023-02-22T16:18:33.650Z,11.31
2023-02-22T16:21:05.142Z,11.77
2023-02-22T16:23:46.004Z,11.75
2023-02-22T16:26:29.048Z,11.24
2023-02-22T16:28:57.982Z,11.20
2023-02-22T16:31:28.045Z,10.85
2023-02-22T16:33:55.871Z,11.41
2023-02-22T16:36:36.943Z,11.31
2023-02-22T16:39:08.098Z,10.60
2023-02-22T16:41:35.763Z,10.90
2023-02-22T16:44:03.470Z,10.74
2023-02-22T16:46:30.986Z,10.79
2023-02-22T16:49:03.249Z,10.66
2023-02-22T16:51:39.672Z,11.76
2023-02-22T16:54:12.772Z,11.81
2023-02-22T16:56:41.370Z,11.83
2023-02-22T16:59:12.202Z,11.38
2023-02-22T17:01:39.785Z,11.35
2023-02-22T17:04:14.791Z,11.19
2023-02-22T17:06:42.488Z,11.68
2023-02-22T17:09:11.536Z,11.24
2023-02-22T17:11:39.729Z,10.81
2023-02-22T17:14:07.250Z,11.33
2023-02-22T17:16:34.881Z,11.42
2023-02-22T17:19:04.898Z,10.85
2023-02-22T17:21:32.703Z,10.84
2023-02-22T17:24:00.198Z,10.89
2023-02-22T17:26:28.925Z,11.39
2023-02-22T17:28:56.318Z,11.20
2023-02-22T17:31:30.475Z,11.54
2023-02-22T17:34:02.103Z,10.71
2023-02-22T17:36:29.637Z,10.94
2023-02-22T17:38:57.269Z,11.03
2023-02-22T17:41:24.685Z,11.29
2023-02-22T17:43:54.266Z,10.79
2023-02-22T17:46:21.879Z,10.58
2023-02-22T17:48:49.427Z,10.83
2023-02-22T17:51:17.341Z,10.70
2023-02-22T17:53:44.810Z,11.36
2023-02-22T17:56:16.683Z,11.05
2023-02-22T17:58:44.324Z,11.22
2023-02-22T18:01:24.575Z,11.76
2023-02-22T18:03:53.055Z,11.29
2023-02-22T18:06:25.141Z,11.47
2023-02-22T18:08:55.840Z,11.29
2023-02-22T18:11:26.218Z,11.23
2023-02-22T18:13:54.512Z,11.42
2023-02-22T18:16:25.486Z,11.11
2023-02-22T18:18:53.096Z,11.31
2023-02-22T18:21:20.529Z,11.21
2023-02-22T18:23:48.059Z,11.51
2023-02-22T18:26:17.319Z,11.41
2023-02-22T18:28:44.906Z,10.84
2023-02-22T18:31:14.836Z,11.38
2023-02-22T18:33:44.170Z,11.53
2023-02-22T18:36:12.651Z,10.64
2023-02-22T18:38:42.836Z,10.90
2023-02-22T18:41:12.756Z,11.17
2023-02-22T18:43:40.894Z,11.60
2023-02-22T18:46:10.366Z,11.11
2023-02-22T18:48:38.932Z,11.13
2023-02-22T18:51:10.328Z,10.97
2023-02-22T18:53:38.342Z,11.02
2023-02-22T18:56:07.436Z,10.91
2023-02-22T18:58:35.360Z,10.41
2023-02-22T19:01:03.606Z,10.50
2023-02-22T19:03:33.091Z,10.81
2023-02-22T19:06:03.444Z,10.70
2023-02-22T19:08:33.073Z,11.04
2023-02-22T19:11:06.372Z,10.66
2023-02-22T19:13:35.119Z,10.71
2023-02-22T19:16:03.824Z,10.74
2023-02-22T19:18:31.954Z,9.81
2023-02-22T19:20:59.499Z,10.70
2023-02-22T19:23:27.097Z,11.02
2023-02-22T19:25:55.830Z,11.22
2023-02-22T19:28:28.007Z,11.31
2023-02-22T19:30:55.562Z,11.05
2023-02-22T19:33:26.045Z,11.15
2023-02-22T19:35:53.726Z,11.06
2023-02-22T19:38:21.309Z,11.41
2023-02-22T19:40:48.751Z,10.90
2023-02-22T19:43:17.539Z,10.88
2023-02-22T19:45:44.950Z,11.46
2023-02-22T19:48:14.251Z,11.26
2023-02-22T19:50:48.792Z,11.37
2023-02-22T19:53:16.321Z,10.37
2023-02-22T19:55:44.140Z,10.47
2023-02-22T19:58:14.705Z,10.19
2023-02-22T20:00:43.409Z,10.29
2023-02-22T20:03:13.374Z,10.02
2023-02-22T20:05:41.868Z,9.56
2023-02-22T20:08:09.722Z,10.43
2023-02-22T20:10:37.133Z,10.40
2023-02-22T20:13:04.735Z,9.50
2023-02-22T20:15:34.448Z,10.03
2023-02-22T20:18:03.344Z,10.09
2023-02-22T20:20:31.797Z,10.49
2023-02-22T20:22:59.249Z,10.24
2023-02-22T20:25:26.643Z,10.42
2023-02-22T20:27:56.257Z,9.87
2023-02-22T20:30:23.714Z,10.34
2023-02-22T20:32:51.526Z,9.43
2023-02-22T20:35:21.143Z,9.19
2023-02-22T20:37:48.538Z,9.93
2023-02-22T20:40:16.182Z,9.94
2023-02-22T20:42:44.544Z,9.37
2023-02-22T20:45:12.096Z,9.41
2023-02-22T20:47:39.561Z,8.88
2023-02-22T20:50:08.249Z,9.36
2023-02-22T20:52:37.086Z,8.58
2023-02-22T20:55:04.709Z,9.44
2023-02-22T20:57:32.130Z,9.30
2023-02-22T21:00:00.471Z,9.66
2023-02-22T21:02:28.027Z,9.69
2023-02-22T21:04:55.465Z,8.94
2023-02-22T21:07:22.993Z,9.13
2023-02-22T21:09:52.524Z,9.31
2023-02-22T21:12:19.983Z,9.66
2023-02-22T21:14:47.394Z,9.12
2023-02-22T21:17:14.833Z,8.85
2023-02-22T21:19:42.490Z,9.52
2023-02-22T21:22:10.255Z,9.89
2023-02-22T21:24:37.960Z,9.79
2023-02-22T21:27:06.957Z,9.77
2023-02-22T21:29:35.524Z,9.86
2023-02-22T21:32:03.829Z,8.55
2023-02-22T21:34:31.355Z,9.37
2023-02-22T21:36:58.767Z,9.53
2023-02-22T21:39:28.525Z,9.15
2023-02-22T21:42:00.047Z,8.60
2023-02-22T21:44:29.621Z,9.19
2023-02-22T21:46:57.144Z,9.58
2023-02-22T21:49:25.037Z,9.29
2023-02-22T21:51:52.967Z,8.44
2023-02-22T21:54:20.866Z,9.13
2023-02-22T21:56:48.386Z,8.89
2023-02-22T21:59:19.022Z,8.36
2023-02-22T22:01:49.895Z,9.01
2023-02-22T22:04:19.789Z,8.42
2023-02-22T22:06:49.120Z,8.53
2023-02-22T22:09:19.930Z,8.70
2023-02-22T22:11:49.539Z,10.02
2023-02-22T22:14:18.593Z,10.19
2023-02-22T22:16:48.860Z,9.88
2023-02-22T22:19:16.370Z,10.50
2023-02-22T22:21:43.783Z,9.69
2023-02-22T22:24:11.998Z,9.80
2023-02-22T22:26:42.561Z,9.52
2023-02-22T22:29:11.437Z,10.22
2023-02-22T22:31:39.151Z,10.29
2023-02-22T22:34:08.086Z,10.74
2023-02-22T22:36:36.483Z,9.85
2023-02-22T22:39:12.931Z,8.74
2023-02-22T22:41:41.365Z,8.90
2023-02-22T22:44:09.871Z,8.73
2023-02-22T22:46:40.325Z,8.93
2023-02-22T22:49:10.705Z,8.69
2023-02-22T22:51:40.806Z,8.67
2023-02-22T22:54:09.409Z,8.46
2023-02-22T22:56:39.264Z,8.65
2023-02-22T22:59:09.553Z,7.99
2023-02-22T23:01:40.561Z,8.21
2023-02-22T23:04:12.115Z,8.23
2023-02-22T23:06:41.658Z,8.74
2023-02-22T23:09:11.793Z,8.29
2023-02-22T23:11:44.330Z,8.04
2023-02-22T23:14:13.328Z,7.87
2023-02-22T23:16:41.922Z,8.36
2023-02-22T23:19:10.865Z,8.42
2023-02-22T23:21:39.290Z,8.70
2023-02-22T23:24:07.452Z,8.25
2023-02-22T23:26:35.709Z,8.29
2023-02-22T23:29:04.004Z,8.09
2023-02-22T23:31:32.062Z,7.92
2023-02-22T23:34:00.279Z,7.52
2023-02-22T23:36:29.447Z,8.45
2023-02-22T23:38:56.899Z,8.14
2023-02-22T23:41:28.334Z,7.81
2023-02-22T23:43:55.761Z,7.90
2023-02-22T23:46:23.206Z,7.81
2023-02-22T23:48:53.059Z,7.88
2023-02-22T23:51:25.358Z,8.16
2023-02-22T23:53:56.401Z,8.34
2023-02-22T23:56:26.486Z,8.30
2023-02-22T23:58:57.371Z,7.95
